createdAt,value
2024-01-12T00:01:53.208Z,5.81
2024-01-12T00:04:20.077Z,5.79
2024-01-12T00:06:47.698Z,5.91
2024-01-12T00:09:14.699Z,5.82
2024-01-12T00:11:41.614Z,5.83
2024-01-12T00:14:09.098Z,5.74
2024-01-12T00:16:35.924Z,5.75
2024-01-12T00:19:02.852Z,5.68
2024-01-12T00:21:29.714Z,5.62
2024-01-12T00:23:56.695Z,5.62
2024-01-12T00:26:23.582Z,5.68
2024-01-12T00:28:50.396Z,5.64
2024-01-12T00:31:17.357Z,5.59
2024-01-12T00:33:44.247Z,5.56
2024-01-12T00:36:12.234Z,5.58
2024-01-12T00:38:39.034Z,5.57
2024-01-12T00:41:05.909Z,5.56
2024-01-12T00:43:32.708Z,5.46
2024-01-12T00:45:59.853Z,5.46
2024-01-12T00:48:26.984Z,5.46
2024-01-12T00:50:54.227Z,5.38
2024-01-12T00:53:21.262Z,5.37
2024-01-12T00:55:48.166Z,5.35
2024-01-12T00:58:14.923Z,5.37
2024-01-12T01:00:41.778Z,5.40
2024-01-12T01:03:08.749Z,5.29
2024-01-12T01:05:35.684Z,5.14
2024-01-12T01:08:02.520Z,5.10
2024-01-12T01:10:29.301Z,4.95
2024-01-12T01:12:56.158Z,4.90
2024-01-12T01:15:23.181Z,4.85
2024-01-12T01:17:50.798Z,4.84
2024-01-12T01:20:17.899Z,4.88
2024-01-12T01:22:44.816Z,4.80
2024-01-12T01:25:11.923Z,4.82
2024-01-12T01:27:38.735Z,4.81
2024-01-12T01:30:06.155Z,4.80
2024-01-12T01:32:33.816Z,4.90
2024-01-12T01:35:00.885Z,4.93
2024-01-12T01:37:27.672Z,4.84
2024-01-12T01:39:54.526Z,4.91
2024-01-12T01:42:21.392Z,4.87
2024-01-12T01:44:48.221Z,4.88
2024-01-12T01:47:16.099Z,4.82
2024-01-12T01:49:43.013Z,4.77
2024-01-12T01:52:10.901Z,4.69
2024-01-12T01:54:38.058Z,4.63
2024-01-12T01:57:06.567Z,4.67
2024-01-12T01:59:36.447Z,4.66
2024-01-12T02:02:05.196Z,4.74
2024-01-12T02:04:32.389Z,4.74
2024-01-12T02:06:59.401Z,4.67
2024-01-12T02:09:28.622Z,4.70
2024-01-12T02:11:56.019Z,4.74
2024-01-12T02:14:23.274Z,4.69
2024-01-12T02:16:50.394Z,4.74
2024-01-12T02:19:17.417Z,4.72
2024-01-12T02:21:44.425Z,4.76
2024-01-12T02:24:11.237Z,4.69
2024-01-12T02:26:38.192Z,4.70
2024-01-12T02:29:05.105Z,4.58
2024-01-12T02:31:32.153Z,4.56
2024-01-12T02:33:59.002Z,4.56
2024-01-12T02:36:28.955Z,4.75
2024-01-12T02:38:56.624Z,4.70
2024-01-12T02:41:23.712Z,4.82
2024-01-12T02:43:50.612Z,4.68
2024-01-12T02:46:17.762Z,4.76
2024-01-12T02:48:44.611Z,4.61
2024-01-12T02:51:11.452Z,4.77
2024-01-12T02:53:38.373Z,4.74
2024-01-12T02:56:05.310Z,4.53
2024-01-12T02:58:32.124Z,4.62
2024-01-12T03:01:00.258Z,4.68
2024-01-12T03:03:27.165Z,4.56
2024-01-12T03:05:54.139Z,4.49
2024-01-12T03:08:20.913Z,4.62
2024-01-12T03:10:47.744Z,4.62
2024-01-12T03:13:14.509Z,4.71
2024-01-12T03:15:41.339Z,4.39
2024-01-12T03:18:08.296Z,4.37
2024-01-12T03:20:36.329Z,4.22
2024-01-12T03:23:03.381Z,4.18
2024-01-12T03:25:30.242Z,4.12
2024-01-12T03:27:59.594Z,4.10
2024-01-12T03:30:26.483Z,4.06
2024-01-12T03:32:53.560Z,4.22
2024-01-12T03:35:20.410Z,4.06
2024-01-12T03:37:47.239Z,3.97
2024-01-12T03:40:14.198Z,3.92
2024-01-12T03:42:41.018Z,3.95
2024-01-12T03:45:08.965Z,4.05
2024-01-12T03:47:36.486Z,4.17
2024-01-12T03:50:03.579Z,4.20
2024-01-12T03:52:30.388Z,4.31
2024-01-12T03:54:57.200Z,4.29
2024-01-12T03:57:24.701Z,4.16
2024-01-12T03:59:51.563Z,4.06
2024-01-12T04:02:19.230Z,4.23
2024-01-12T04:04:46.092Z,4.20
2024-01-12T04:07:13.027Z,4.17
2024-01-12T04:09:42.573Z,4.09
2024-01-12T04:12:10.134Z,4.03
2024-01-12T04:14:37.362Z,4.00
2024-01-12T04:17:05.775Z,3.95
2024-01-12T04:19:32.753Z,3.76
2024-01-12T04:21:59.828Z,3.76
2024-01-12T04:24:26.656Z,3.73
2024-01-12T04:26:53.733Z,3.74
2024-01-12T04:29:20.627Z,3.66
2024-01-12T04:31:47.443Z,3.70
2024-01-12T04:34:14.334Z,3.83
2024-01-12T04:36:41.246Z,3.90
2024-01-12T04:39:08.038Z,3.95
2024-01-12T04:41:34.881Z,3.93
2024-01-12T04:44:01.745Z,3.93
2024-01-12T04:46:29.780Z,3.85
2024-01-12T04:48:56.772Z,3.87
2024-01-12T04:51:23.660Z,3.94
2024-01-12T04:53:50.581Z,3.83
2024-01-12T04:56:17.679Z,3.80
2024-01-12T04:58:44.606Z,3.80
2024-01-12T05:01:11.451Z,3.83
2024-01-12T05:03:38.335Z,3.71
2024-01-12T05:06:05.546Z,3.67
2024-01-12T05:08:35.093Z,3.70
2024-01-12T05:11:01.933Z,3.67
2024-01-12T05:13:28.782Z,3.69
2024-01-12T05:15:55.729Z,3.62
2024-01-12T05:18:23.427Z,3.66
2024-01-12T05:20:50.363Z,3.71
2024-01-12T05:23:17.541Z,3.71
2024-01-12T05:25:44.450Z,3.59
2024-01-12T05:28:11.503Z,3.47
2024-01-12T05:30:39.421Z,3.46
2024-01-12T05:33:06.374Z,3.71
2024-01-12T05:35:33.445Z,3.34
2024-01-12T05:38:00.326Z,3.63
2024-01-12T05:40:27.100Z,3.84
2024-01-12T05:42:53.937Z,4.21
2024-01-12T05:45:20.749Z,4.32
2024-01-12T05:47:47.629Z,4.28
2024-01-12T05:50:14.726Z,4.51
2024-01-12T05:52:41.598Z,4.65
2024-01-12T05:55:08.638Z,4.55
2024-01-12T05:57:36.327Z,4.72
2024-01-12T06:00:05.489Z,4.74
2024-01-12T06:02:32.814Z,4.80
2024-01-12T06:04:59.601Z,4.97
2024-01-12T06:07:26.516Z,4.91
2024-01-12T06:09:54.801Z,5.15
2024-01-12T06:12:21.587Z,5.13
2024-01-12T06:14:48.362Z,5.06
2024-01-12T06:17:15.295Z,5.02
2024-01-12T06:19:42.252Z,5.15
2024-01-12T06:22:10.969Z,5.23
2024-01-12T06:24:37.786Z,5.13
2024-01-12T06:27:05.551Z,5.21
2024-01-12T06:29:32.861Z,5.26
2024-01-12T06:31:59.924Z,5.24
2024-01-12T06:34:26.686Z,5.31
2024-01-12T06:36:53.504Z,5.31
2024-01-12T06:39:20.772Z,5.20
2024-01-12T06:41:48.274Z,5.37
2024-01-12T06:44:15.858Z,5.45
2024-01-12T06:46:45.017Z,5.42
2024-01-12T06:49:13.075Z,5.38
2024-01-12T06:51:40.150Z,5.49
2024-01-12T06:54:07.164Z,5.55
2024-01-12T06:56:38.432Z,5.65
2024-01-12T06:59:05.978Z,5.60
2024-01-12T07:01:33.413Z,5.55
2024-01-12T07:04:00.407Z,5.58
2024-01-12T07:06:27.449Z,5.51
2024-01-12T07:08:54.495Z,5.55
2024-01-12T07:11:21.471Z,5.49
2024-01-12T07:13:48.246Z,5.54
2024-01-12T07:16:15.287Z,5.54
2024-01-12T07:18:43.865Z,5.61
2024-01-12T07:21:10.848Z,5.54
2024-01-12T07:23:37.735Z,5.66
2024-01-12T07:26:04.690Z,5.70
2024-01-12T07:28:31.956Z,5.74
2024-01-12T07:30:58.876Z,5.73
2024-01-12T07:33:26.116Z,5.71
2024-01-12T07:35:53.189Z,5.63
2024-01-12T07:38:20.510Z,5.58
2024-01-12T07:40:48.302Z,5.63
2024-01-12T07:43:15.505Z,5.65
2024-01-12T07:45:42.428Z,5.71
2024-01-12T07:48:09.581Z,5.81
2024-01-12T07:50:37.106Z,5.80
2024-01-12T07:53:04.064Z,5.86
2024-01-12T07:55:31.249Z,5.96
2024-01-12T07:57:58.172Z,5.71
2024-01-12T08:00:25.026Z,5.87
2024-01-12T08:02:53.730Z,5.36
2024-01-12T08:05:21.735Z,5.45
2024-01-12T08:07:49.429Z,5.55
2024-01-12T08:10:17.097Z,5.45
2024-01-12T08:12:43.942Z,4.76
2024-01-12T08:15:11.017Z,4.97
2024-01-12T08:17:38.921Z,4.83
2024-01-12T08:20:06.841Z,5.40
2024-01-12T08:22:33.828Z,4.86
2024-01-12T08:25:01.206Z,5.40
2024-01-12T08:27:28.125Z,5.40
2024-01-12T08:29:55.009Z,5.16
2024-01-12T08:32:21.999Z,5.18
2024-01-12T08:34:49.382Z,5.02
2024-01-12T08:37:16.222Z,5.02
2024-01-12T08:39:43.040Z,5.01
2024-01-12T08:42:09.876Z,4.87
2024-01-12T08:44:36.776Z,5.29
2024-01-12T08:47:03.710Z,5.04
2024-01-12T08:49:30.526Z,5.04
2024-01-12T08:51:57.421Z,4.94
2024-01-12T08:54:24.200Z,4.98
2024-01-12T08:56:51.536Z,4.89
2024-01-12T08:59:18.517Z,5.07
2024-01-12T09:01:45.478Z,5.32
2024-01-12T09:04:12.517Z,5.41
2024-01-12T09:06:39.480Z,5.47
2024-01-12T09:09:06.505Z,5.30
2024-01-12T09:11:33.374Z,5.14
2024-01-12T09:14:00.287Z,5.70
2024-01-12T09:16:27.131Z,5.86
2024-01-12T09:18:54.084Z,5.94
2024-01-12T09:21:21.030Z,5.99
2024-01-12T09:23:47.973Z,5.93
2024-01-12T09:26:14.781Z,5.69
2024-01-12T09:28:41.599Z,5.78
2024-01-12T09:31:09.415Z,5.56
2024-01-12T09:33:36.565Z,5.75
2024-01-12T09:36:04.525Z,5.72
2024-01-12T09:38:31.542Z,5.53
2024-01-12T09:40:59.903Z,5.68
2024-01-12T09:43:29.436Z,5.68
2024-01-12T09:46:00.270Z,5.60
2024-01-12T09:48:28.534Z,5.60
2024-01-12T09:50:58.831Z,5.71
2024-01-12T09:53:26.921Z,5.69
2024-01-12T09:56:03.381Z,5.58
2024-01-12T09:58:37.973Z,6.03
2024-01-12T10:01:06.546Z,6.12
2024-01-12T10:03:34.699Z,6.21
2024-01-12T10:06:01.798Z,6.24
2024-01-12T10:08:38.794Z,6.28
2024-01-12T10:11:05.650Z,6.67
2024-01-12T10:13:33.010Z,6.29
2024-01-12T10:16:02.248Z,6.51
2024-01-12T10:18:29.587Z,6.42
2024-01-12T10:20:56.949Z,6.25
2024-01-12T10:23:24.667Z,6.51
2024-01-12T10:26:01.264Z,6.44
2024-01-12T10:28:32.266Z,6.59
2024-01-12T10:31:04.304Z,6.23
2024-01-12T10:33:31.460Z,6.62
2024-01-12T10:36:07.766Z,6.67
2024-01-12T10:38:38.137Z,6.73
2024-01-12T10:41:07.560Z,6.59
2024-01-12T10:43:38.369Z,6.54
2024-01-12T10:46:13.412Z,6.55
2024-01-12T10:49:06.654Z,6.45
2024-01-12T10:51:38.106Z,6.79
2024-01-12T10:54:20.086Z,6.81
2024-01-12T10:56:47.090Z,6.78
2024-01-12T10:59:14.320Z,6.78
2024-01-12T11:01:42.108Z,6.61
2024-01-12T11:04:09.297Z,6.82
2024-01-12T11:06:37.504Z,6.81
2024-01-12T11:09:06.063Z,6.64
2024-01-12T11:11:41.471Z,6.63
2024-01-12T11:14:08.973Z,6.57
2024-01-12T11:16:36.457Z,6.18
2024-01-12T11:19:04.671Z,6.61
2024-01-12T11:21:31.714Z,6.46
2024-01-12T11:23:58.660Z,6.45
2024-01-12T11:26:25.586Z,6.63
2024-01-12T11:28:52.435Z,7.03
2024-01-12T11:31:27.302Z,7.00
2024-01-12T11:34:04.375Z,7.05
2024-01-12T11:36:31.849Z,7.11
2024-01-12T11:39:02.175Z,7.11
2024-01-12T11:41:31.154Z,7.07
2024-01-12T11:43:58.284Z,7.18
2024-01-12T11:46:25.330Z,7.27
2024-01-12T11:48:52.872Z,7.39
2024-01-12T11:51:24.313Z,7.22
2024-01-12T11:53:53.301Z,7.50
2024-01-12T11:56:25.203Z,7.21
2024-01-12T11:58:55.436Z,7.42
2024-01-12T12:01:24.022Z,7.55
2024-01-12T12:03:50.941Z,7.58
2024-01-12T12:06:18.431Z,7.16
2024-01-12T12:08:45.472Z,7.50
2024-01-12T12:11:15.115Z,7.66
2024-01-12T12:13:42.616Z,7.65
2024-01-12T12:16:09.601Z,7.66
2024-01-12T12:18:36.792Z,7.64
2024-01-12T12:21:04.211Z,7.70
2024-01-12T12:23:31.488Z,7.78
2024-01-12T12:26:00.629Z,7.90
2024-01-12T12:28:27.837Z,7.62
2024-01-12T12:30:55.250Z,7.40
2024-01-12T12:33:26.101Z,7.21
2024-01-12T12:36:10.308Z,7.51
2024-01-12T12:38:38.773Z,7.39
2024-01-12T12:41:09.944Z,7.55
2024-01-12T12:43:39.176Z,7.81
2024-01-12T12:46:06.442Z,7.84
2024-01-12T12:48:33.485Z,7.78
2024-01-12T12:51:00.699Z,7.90
2024-01-12T12:53:27.998Z,7.93
2024-01-12T12:55:55.418Z,7.70
2024-01-12T12:58:22.259Z,7.76
2024-01-12T13:00:49.462Z,7.79
2024-01-12T13:03:16.408Z,7.60
2024-01-12T13:05:43.455Z,7.24
2024-01-12T13:08:10.586Z,7.38
2024-01-12T13:10:37.834Z,7.16
2024-01-12T13:13:05.481Z,7.31
2024-01-12T13:15:33.394Z,7.04
2024-01-12T13:18:00.509Z,7.33
2024-01-12T13:20:30.404Z,7.26
2024-01-12T13:22:58.240Z,7.29
2024-01-12T13:25:25.302Z,6.87
2024-01-12T13:27:52.134Z,7.13
2024-01-12T13:30:19.329Z,7.24
2024-01-12T13:32:46.340Z,7.07
2024-01-12T13:35:13.425Z,7.38
2024-01-12T13:37:40.342Z,7.47
2024-01-12T13:40:07.887Z,7.21
2024-01-12T13:42:35.053Z,7.44
2024-01-12T13:45:02.907Z,7.65
2024-01-12T13:47:30.154Z,7.53
2024-01-12T13:49:57.135Z,7.62
2024-01-12T13:52:24.143Z,7.82
2024-01-12T13:54:51.096Z,7.78
2024-01-12T13:57:18.169Z,7.83
2024-01-12T13:59:45.212Z,7.83
2024-01-12T14:02:12.101Z,7.88
2024-01-12T14:04:39.072Z,7.83
2024-01-12T14:07:07.165Z,7.62
2024-01-12T14:09:34.128Z,7.28
2024-01-12T14:12:01.852Z,7.39
2024-01-12T14:14:28.846Z,7.65
2024-01-12T14:16:55.988Z,7.68
2024-01-12T14:19:22.935Z,7.82
2024-01-12T14:21:49.860Z,7.88
2024-01-12T14:24:17.977Z,7.81
2024-01-12T14:26:44.964Z,7.53
2024-01-12T14:29:12.336Z,7.72
2024-01-12T14:31:39.463Z,7.71
2024-01-12T14:34:06.653Z,7.64
2024-01-12T14:36:33.636Z,7.74
2024-01-12T14:39:00.523Z,7.81
2024-01-12T14:41:27.448Z,7.47
2024-01-12T14:43:54.303Z,7.31
2024-01-12T14:46:22.163Z,7.16
2024-01-12T14:48:49.959Z,7.52
2024-01-12T14:51:17.330Z,7.47
2024-01-12T14:53:44.381Z,7.27
2024-01-12T14:56:14.647Z,7.29
2024-01-12T14:58:42.773Z,6.95
2024-01-12T15:01:09.831Z,7.18
2024-01-12T15:03:37.090Z,7.27
2024-01-12T15:06:04.697Z,7.34
2024-01-12T15:08:33.580Z,7.09
2024-01-12T15:11:00.590Z,7.15
2024-01-12T15:13:28.376Z,7.26
2024-01-12T15:15:56.866Z,7.47
2024-01-12T15:18:24.376Z,7.33
2024-01-12T15:20:55.057Z,7.33
2024-01-12T15:23:22.328Z,7.21
2024-01-12T15:25:54.739Z,7.37
2024-01-12T15:28:21.617Z,7.45
2024-01-12T15:30:48.547Z,7.44
2024-01-12T15:33:15.728Z,7.35
2024-01-12T15:35:44.005Z,7.42
2024-01-12T15:38:10.812Z,7.43
2024-01-12T15:40:37.600Z,7.26
2024-01-12T15:43:04.793Z,7.33
2024-01-12T15:45:31.949Z,7.42
2024-01-12T15:47:59.079Z,7.49
2024-01-12T15:50:27.116Z,7.52
2024-01-12T15:52:54.025Z,7.37
2024-01-12T15:55:20.770Z,7.51
2024-01-12T15:57:47.693Z,7.37
2024-01-12T16:00:14.817Z,7.43
2024-01-12T16:02:41.725Z,7.49
2024-01-12T16:05:08.994Z,7.36
2024-01-12T16:07:35.835Z,7.39
2024-01-12T16:10:02.921Z,7.40
2024-01-12T16:12:30.039Z,7.33
2024-01-12T16:14:56.898Z,7.31
2024-01-12T16:17:23.869Z,7.43
2024-01-12T16:19:51.038Z,7.43
2024-01-12T16:22:18.025Z,7.38
2024-01-12T16:24:49.526Z,7.40
2024-01-12T16:27:17.118Z,7.42
2024-01-12T16:29:45.325Z,7.43
2024-01-12T16:32:12.472Z,7.41
2024-01-12T16:34:39.614Z,7.43
2024-01-12T16:37:06.531Z,7.43
2024-01-12T16:39:33.423Z,7.51
2024-01-12T16:42:00.468Z,7.55
2024-01-12T16:44:28.874Z,7.18
2024-01-12T16:46:55.902Z,7.31
2024-01-12T16:49:23.179Z,7.39
2024-01-12T16:51:50.244Z,7.44
2024-01-12T16:54:17.470Z,7.42
2024-01-12T16:56:44.365Z,7.50
2024-01-12T16:59:12.085Z,7.45
2024-01-12T17:01:39.805Z,7.35
2024-01-12T17:04:06.781Z,7.32
2024-01-12T17:06:41.217Z,7.38
2024-01-12T17:09:12.136Z,7.11
2024-01-12T17:11:46.693Z,7.14
2024-01-12T17:14:13.941Z,7.15
2024-01-12T17:16:44.723Z,7.11
2024-01-12T17:19:12.005Z,7.24
2024-01-12T17:21:39.036Z,7.06
2024-01-12T17:24:06.167Z,7.31
2024-01-12T17:26:36.368Z,7.31
2024-01-12T17:29:03.312Z,7.40
2024-01-12T17:31:31.349Z,7.32
2024-01-12T17:33:58.740Z,7.47
2024-01-12T17:36:25.602Z,7.46
2024-01-12T17:38:52.644Z,7.33
2024-01-12T17:41:23.776Z,7.47
2024-01-12T17:43:51.546Z,7.20
2024-01-12T17:46:18.407Z,6.97
2024-01-12T17:48:45.554Z,7.04
2024-01-12T17:51:16.200Z,7.31
2024-01-12T17:53:44.247Z,7.33
2024-01-12T17:56:12.351Z,7.08
2024-01-12T17:58:39.274Z,7.36
2024-01-12T18:01:06.115Z,7.37
2024-01-12T18:03:32.908Z,7.44
2024-01-12T18:06:03.168Z,7.36
2024-01-12T18:08:30.105Z,7.23
2024-01-12T18:10:56.923Z,7.05
2024-01-12T18:13:23.797Z,7.23
2024-01-12T18:15:50.732Z,7.26
2024-01-12T18:18:17.963Z,7.19
2024-01-12T18:20:45.032Z,7.14
2024-01-12T18:23:11.885Z,7.01
2024-01-12T18:25:38.739Z,6.95
2024-01-12T18:28:05.615Z,6.77
2024-01-12T18:30:32.659Z,7.04
2024-01-12T18:33:02.688Z,7.08
2024-01-12T18:35:29.633Z,7.13
2024-01-12T18:37:56.553Z,7.00
2024-01-12T18:40:23.479Z,7.05
2024-01-12T18:42:50.460Z,6.57
2024-01-12T18:45:17.415Z,6.12
2024-01-12T18:47:44.323Z,5.96
2024-01-12T18:50:11.344Z,6.22
2024-01-12T18:52:43.838Z,6.56
2024-01-12T18:55:10.814Z,6.81
2024-01-12T18:57:37.624Z,6.95
2024-01-12T19:00:06.481Z,6.66
2024-01-12T19:02:33.368Z,6.33
2024-01-12T19:05:00.262Z,6.82
2024-01-12T19:07:28.810Z,6.62
2024-01-12T19:09:58.163Z,6.99
2024-01-12T19:12:24.991Z,6.90
2024-01-12T19:14:51.924Z,6.91
2024-01-12T19:17:18.945Z,6.80
2024-01-12T19:19:45.974Z,7.00
2024-01-12T19:22:12.991Z,7.01
2024-01-12T19:24:44.780Z,7.09
2024-01-12T19:27:12.617Z,7.03
2024-01-12T19:29:39.610Z,6.60
2024-01-12T19:32:06.954Z,6.92
2024-01-12T19:34:33.950Z,7.15
2024-01-12T19:37:00.783Z,7.17
2024-01-12T19:39:27.612Z,6.86
2024-01-12T19:41:58.530Z,6.93
2024-01-12T19:44:25.524Z,6.65
2024-01-12T19:46:52.357Z,6.41
2024-01-12T19:49:19.239Z,6.54
2024-01-12T19:51:46.129Z,6.87
2024-01-12T19:54:13.101Z,6.81
2024-01-12T19:56:39.952Z,6.87
2024-01-12T19:59:07.041Z,6.92
2024-01-12T20:01:33.971Z,7.06
2024-01-12T20:04:01.575Z,6.88
2024-01-12T20:06:28.695Z,6.92
2024-01-12T20:08:55.683Z,6.96
2024-01-12T20:11:22.495Z,6.83
2024-01-12T20:13:49.278Z,7.02
2024-01-12T20:16:16.155Z,7.17
2024-01-12T20:18:43.660Z,7.17
2024-01-12T20:21:11.594Z,7.07
2024-01-12T20:23:39.250Z,7.23
2024-01-12T20:26:06.441Z,7.23
2024-01-12T20:28:34.732Z,7.29
2024-01-12T20:31:02.594Z,7.38
2024-01-12T20:33:29.871Z,7.22
2024-01-12T20:35:56.982Z,7.39
2024-01-12T20:38:23.839Z,7.26
2024-01-12T20:40:50.667Z,7.23
2024-01-12T20:43:17.491Z,7.23
2024-01-12T20:45:44.728Z,7.19
2024-01-12T20:48:11.638Z,7.07
2024-01-12T20:50:38.593Z,7.21
2024-01-12T20:53:05.652Z,6.99
2024-01-12T20:55:32.468Z,7.30
2024-01-12T20:57:59.659Z,7.33
2024-01-12T21:00:26.661Z,7.48
2024-01-12T21:02:53.595Z,7.41
2024-01-12T21:05:20.601Z,7.41
2024-01-12T21:07:47.576Z,7.51
2024-01-12T21:10:14.501Z,7.52
2024-01-12T21:12:41.286Z,7.56
2024-01-12T21:15:08.489Z,7.57
2024-01-12T21:17:35.330Z,7.59
2024-01-12T21:20:02.416Z,7.62
2024-01-12T21:22:33.974Z,7.58
2024-01-12T21:25:07.592Z,7.72
2024-01-12T21:27:34.570Z,7.61
2024-01-12T21:30:01.567Z,7.51
2024-01-12T21:32:29.528Z,7.60
2024-01-12T21:34:56.583Z,7.73
2024-01-12T21:37:23.477Z,7.75
2024-01-12T21:39:50.338Z,7.69
2024-01-12T21:42:19.502Z,7.65
2024-01-12T21:44:46.575Z,7.72
2024-01-12T21:47:15.265Z,7.59
2024-01-12T21:49:42.516Z,7.56
2024-01-12T21:52:09.509Z,7.59
2024-01-12T21:54:36.290Z,7.67
2024-01-12T21:57:03.532Z,7.74
2024-01-12T21:59:30.968Z,7.68
2024-01-12T22:01:58.092Z,7.70
2024-01-12T22:04:24.859Z,7.63
2024-01-12T22:06:51.781Z,7.64
2024-01-12T22:09:18.877Z,7.63
2024-01-12T22:11:45.773Z,7.72
2024-01-12T22:14:12.694Z,7.75
2024-01-12T22:16:39.619Z,7.69
2024-01-12T22:19:06.591Z,7.65
2024-01-12T22:21:36.473Z,7.58
2024-01-12T22:24:06.666Z,7.71
2024-01-12T22:26:33.544Z,7.83
2024-01-12T22:29:02.854Z,7.71
2024-01-12T22:31:29.657Z,7.75
2024-01-12T22:33:56.630Z,7.76
2024-01-12T22:36:23.552Z,7.79
2024-01-12T22:38:50.424Z,7.75
2024-01-12T22:41:17.333Z,7.73
2024-01-12T22:43:44.208Z,7.74
2024-01-12T22:46:10.978Z,7.74
2024-01-12T22:48:37.798Z,7.83
2024-01-12T22:51:05.890Z,7.72
2024-01-12T22:53:33.487Z,7.79
2024-01-12T22:56:00.341Z,7.80
2024-01-12T22:58:27.153Z,7.86
2024-01-12T23:00:54.047Z,7.78
2024-01-12T23:03:20.962Z,7.66
2024-01-12T23:05:47.881Z,7.65
2024-01-12T23:08:14.769Z,7.65
2024-01-12T23:10:41.618Z,7.72
2024-01-12T23:13:08.406Z,7.72
2024-01-12T23:15:35.250Z,7.71
2024-01-12T23:18:02.584Z,7.77
2024-01-12T23:20:30.301Z,7.70
2024-01-12T23:22:57.720Z,7.75
2024-01-12T23:25:24.731Z,7.75
2024-01-12T23:27:51.516Z,7.73
2024-01-12T23:30:18.414Z,7.69
2024-01-12T23:32:45.608Z,7.70
2024-01-12T23:35:12.819Z,7.75
2024-01-12T23:37:39.768Z,7.77
2024-01-12T23:40:10.405Z,7.71
2024-01-12T23:42:37.710Z,7.70
2024-01-12T23:45:05.178Z,7.68
2024-01-12T23:47:32.648Z,7.78
2024-01-12T23:49:59.807Z,7.55
2024-01-12T23:52:26.707Z,7.56
2024-01-12T23:54:53.476Z,7.65
2024-01-12T23:57:20.346Z,7.63
2024-01-12T23:59:47.334Z,7.64
